Time;durP1;ratioP1;P1;durP2;ratioP2;P2;SDS_P1;SDS_P2;PMS_P1;PMS_P2;Temp;Humidity;BMP_temperature;BMP_pressure;BME280_temperature;BME280_humidity;BME280_pressure;Samples;Min_cycle;Max_cycle;Signal;HPM_P1;HPM_P2
2021/01/16 00:00:54;;;;;;;6.83;4.17;;;;;;;-1.59;70.39;102115.75;5012607;28;20214;-62
2021/01/16 00:03:21;;;;;;;4.60;3.53;;;;;;;-1.59;70.28;102117.50;5012732;28;20199;-63
2021/01/16 00:05:47;;;;;;;6.30;3.70;;;;;;;-1.59;70.36;102118.38;5017801;28;20707;-63
2021/01/16 00:08:15;;;;;;;6.60;4.00;;;;;;;-1.59;70.16;102113.13;5011877;28;20226;-63
2021/01/16 00:10:44;;;;;;;5.73;3.70;;;;;;;-1.54;70.62;102113.19;5015372;28;20710;-63
2021/01/16 00:13:11;;;;;;;5.67;4.03;;;;;;;-1.53;70.54;102102.75;5014950;28;20451;-63
2021/01/16 00:15:38;;;;;;;6.10;4.50;;;;;;;-1.51;70.06;102108.88;5012284;28;20227;-63
2021/01/16 00:18:06;;;;;;;6.47;4.03;;;;;;;-1.49;70.15;102104.53;5018401;28;20199;-63
2021/01/16 00:20:34;;;;;;;8.00;4.63;;;;;;;-1.48;69.95;102101.06;5015272;28;20238;-63
2021/01/16 00:23:00;;;;;;;6.77;4.20;;;;;;;-1.48;70.69;102100.19;5022701;28;20254;-63
2021/01/16 00:25:27;;;;;;;5.50;3.40;;;;;;;-1.48;70.37;102097.59;5022809;28;20226;-63
2021/01/16 00:27:53;;;;;;;5.37;3.80;;;;;;;-1.47;70.44;102094.13;5031348;28;20206;-63
2021/01/16 00:30:23;;;;;;;5.77;4.20;;;;;;;-1.48;70.33;102100.19;5029540;28;20198;-62
2021/01/16 00:32:49;;;;;;;5.67;3.70;;;;;;;-1.48;70.02;102098.47;5032357;28;20213;-63
2021/01/16 00:35:18;;;;;;;5.57;4.10;;;;;;;-1.48;70.06;102089.75;5032603;28;20237;-63
2021/01/16 00:37:46;;;;;;;7.63;4.07;;;;;;;-1.47;70.37;102094.13;5024249;28;20210;-63
2021/01/16 00:40:14;;;;;;;5.97;3.87;;;;;;;-1.45;70.60;102093.28;5034135;28;20202;-61
2021/01/16 00:42:41;;;;;;;7.20;3.77;;;;;;;-1.44;70.46;102092.41;5032779;28;20233;-63
2021/01/16 00:45:09;;;;;;;6.73;3.90;;;;;;;-1.43;70.25;102093.25;5032538;28;20229;-63
2021/01/16 00:47:35;;;;;;;5.77;4.03;;;;;;;-1.44;70.39;102091.53;5032363;28;20206;-63
2021/01/16 00:50:02;;;;;;;5.23;3.67;;;;;;;-1.45;69.87;102088.03;5033371;28;20232;-63
2021/01/16 00:52:29;;;;;;;5.63;4.10;;;;;;;-1.43;70.31;102088.91;5031828;28;20206;-63
2021/01/16 00:54:55;;;;;;;7.23;4.00;;;;;;;-1.43;70.46;102078.44;5025376;28;20237;-63
2021/01/16 00:57:21;;;;;;;5.40;4.00;;;;;;;-1.41;70.10;102086.31;5023632;28;20661;-63
2021/01/16 00:59:47;;;;;;;5.70;4.20;;;;;;;-1.42;70.35;102081.94;5033378;28;20230;-63
2021/01/16 01:02:13;;;;;;;5.33;4.70;;;;;;;-1.43;70.55;102083.69;5031514;28;20222;-62
2021/01/16 01:04:39;;;;;;;7.50;5.00;;;;;;;-1.45;70.38;102076.72;5032108;28;20313;-63
2021/01/16 01:07:09;;;;;;;7.87;5.03;;;;;;;-1.47;70.14;102074.09;5032543;28;20667;-62
2021/01/16 01:09:36;;;;;;;6.50;4.43;;;;;;;-1.48;70.04;102080.16;5032385;28;20202;-62
2021/01/16 01:12:03;;;;;;;9.23;5.10;;;;;;;-1.50;70.14;102083.63;5031859;28;20606;-63
2021/01/16 01:14:29;;;;;;;7.17;5.27;;;;;;;-1.51;70.25;102079.25;5032893;28;20291;-63
2021/01/16 01:16:55;;;;;;;7.97;5.27;;;;;;;-1.51;70.43;102079.25;5032502;28;20683;-63
2021/01/16 01:19:21;;;;;;;7.93;5.07;;;;;;;-1.51;70.13;102080.13;5032682;28;20207;-63
2021/01/16 01:21:47;;;;;;;7.63;5.00;;;;;;;-1.51;70.19;102082.75;5032099;28;20621;-64
2021/01/16 01:24:13;;;;;;;6.70;4.77;;;;;;;-1.51;69.86;102074.03;5033397;28;20607;-64
2021/01/16 01:26:40;;;;;;;6.40;5.17;;;;;;;-1.51;70.38;102077.53;5031705;28;20202;-64
2021/01/16 01:29:06;;;;;;;7.77;5.00;;;;;;;-1.51;70.00;102074.91;5032765;28;20221;-63
2021/01/16 01:31:33;;;;;;;6.67;4.93;;;;;;;-1.50;70.41;102071.44;5030590;28;20233;-63
2021/01/16 01:33:59;;;;;;;8.07;4.60;;;;;;;-1.51;69.94;102074.91;5032177;28;20222;-64
2021/01/16 01:36:25;;;;;;;6.73;4.70;;;;;;;-1.54;70.08;102069.66;5032601;28;20214;-64
2021/01/16 01:38:51;;;;;;;7.43;4.70;;;;;;;-1.54;70.09;102076.63;5031737;28;20217;-63
2021/01/16 01:41:17;;;;;;;9.37;5.80;;;;;;;-1.54;70.46;102074.88;5033465;28;20236;-64
2021/01/16 01:43:44;;;;;;;10.23;4.93;;;;;;;-1.53;70.40;102078.38;5032119;28;20296;-64
2021/01/16 01:46:10;;;;;;;8.03;5.30;;;;;;;-1.56;69.99;102071.38;5032518;28;20260;-62
2021/01/16 01:48:37;;;;;;;5.43;4.03;;;;;;;-1.58;70.36;102065.25;5032324;28;20206;-64
2021/01/16 01:51:03;;;;;;;5.37;3.83;;;;;;;-1.59;69.98;102067.84;5033082;28;20208;-64
2021/01/16 01:53:29;;;;;;;5.83;3.13;;;;;;;-1.64;69.88;102067.84;5033006;28;20206;-62
2021/01/16 01:55:57;;;;;;;3.17;2.40;;;;;;;-1.67;70.04;102067.81;5032401;28;20593;-63
2021/01/16 01:58:25;;;;;;;4.80;3.20;;;;;;;-1.71;69.53;102066.00;5031352;28;20245;-64
2021/01/16 02:00:53;;;;;;;9.07;3.53;;;;;;;-1.73;69.53;102059.91;5032072;28;20211;-64
2021/01/16 02:03:22;;;;;;;4.83;2.97;;;;;;;-1.72;69.36;102060.78;5032507;28;20203;-63
2021/01/16 02:05:52;;;;;;;5.53;3.23;;;;;;;-1.73;69.23;102062.50;5025690;28;20222;-64
2021/01/16 02:08:18;;;;;;;3.57;2.90;;;;;;;-1.75;68.49;102059.00;5033013;28;20214;-63
2021/01/16 02:10:44;;;;;;;7.47;3.40;;;;;;;-1.77;68.30;102061.59;5031622;28;20301;-61
2021/01/16 02:13:10;;;;;;;3.83;3.10;;;;;;;-1.79;68.10;102062.44;5032990;28;20324;-64
2021/01/16 02:15:42;;;;;;;4.90;3.40;;;;;;;-1.80;68.32;102061.59;5033186;28;20229;-62
2021/01/16 02:18:23;;;;;;;4.87;3.50;;;;;;;-1.81;67.92;102058.97;5032546;28;20209;-63
2021/01/16 02:20:53;;;;;;;6.63;3.67;;;;;;;-1.80;68.35;102066.81;5026986;28;20213;-64
2021/01/16 02:23:48;;;;;;;4.77;2.97;;;;;;;-1.79;68.04;102070.28;5020246;28;20729;-64
2021/01/16 02:26:52;;;;;;;4.23;3.07;;;;;;;-1.81;67.89;102072.91;5032083;28;20202;-64
2021/01/16 02:29:19;;;;;;;5.17;3.10;;;;;;;-1.83;67.48;102064.16;5030786;28;20678;-61
2021/01/16 02:31:50;;;;;;;4.67;3.07;;;;;;;-1.84;67.38;102058.94;5032214;28;20202;-63
2021/01/16 02:34:20;;;;;;;4.40;3.10;;;;;;;-1.88;67.04;102063.25;5030377;28;20276;-63
2021/01/16 02:37:14;;;;;;;4.23;3.47;;;;;;;-1.89;67.15;102058.00;5033014;28;20213;-64
2021/01/16 02:39:53;;;;;;;6.83;3.43;;;;;;;-1.88;67.02;102059.75;5031938;28;20214;-64
2021/01/16 02:42:30;;;;;;;4.70;3.70;;;;;;;-1.86;67.21;102056.31;5031892;28;20719;-63
2021/01/16 02:45:03;;;;;;;4.60;3.20;;;;;;;-1.84;66.80;102058.94;5031962;28;20283;-64
2021/01/16 02:47:35;;;;;;;5.37;3.40;;;;;;;-1.84;66.81;102058.94;5023577;28;20202;-63
2021/01/16 02:50:05;;;;;;;5.10;3.60;;;;;;;-1.84;67.06;102054.59;5032022;28;20210;-62
2021/01/16 02:52:35;;;;;;;5.13;3.60;;;;;;;-1.83;67.33;102050.25;5027262;28;20249;-63
2021/01/16 02:55:02;;;;;;;4.97;3.40;;;;;;;-1.82;66.71;102054.59;5032275;28;20238;-62
2021/01/16 02:57:28;;;;;;;4.90;3.43;;;;;;;-1.80;67.29;102045.06;5029861;28;20689;-62
2021/01/16 02:59:54;;;;;;;5.60;3.80;;;;;;;-1.79;66.75;102052.00;5032945;28;20285;-63
2021/01/16 03:02:21;;;;;;;5.17;3.60;;;;;;;-1.79;66.78;102054.59;5031250;28;20308;-63
2021/01/16 03:04:47;;;;;;;6.00;4.17;;;;;;;-1.77;66.89;102045.06;5025182;28;20226;-63
2021/01/16 03:07:15;;;;;;;4.10;3.00;;;;;;;-1.75;67.06;102048.56;5032123;28;20728;-63
2021/01/16 03:09:42;;;;;;;4.20;3.50;;;;;;;-1.75;67.08;102043.34;5032348;28;20256;-63
2021/01/16 03:12:10;;;;;;;4.83;3.60;;;;;;;-1.72;67.46;102045.97;5020337;28;20735;-63
2021/01/16 03:14:38;;;;;;;5.43;4.03;;;;;;;-1.72;67.39;102045.09;5031585;28;20230;-64
2021/01/16 03:17:06;;;;;;;6.50;3.63;;;;;;;-1.70;67.24;102043.38;5032062;28;20206;-64
2021/01/16 03:19:35;;;;;;;5.00;3.50;;;;;;;-1.68;67.50;102042.53;5031237;28;20207;-64
2021/01/16 03:22:07;;;;;;;6.30;3.67;;;;;;;-1.67;67.40;102033.84;5031716;28;20284;-64
2021/01/16 03:24:33;;;;;;;5.47;3.80;;;;;;;-1.66;67.10;102026.88;5050537;22;20720;-57
2021/01/16 03:26:59;;;;;;;4.90;3.50;;;;;;;-1.65;67.34;102026.03;5054663;28;20288;-58
2021/01/16 03:29:25;;;;;;;6.17;3.73;;;;;;;-1.65;67.47;102029.50;5050969;28;20209;-59
2021/01/16 03:31:51;;;;;;;6.50;3.57;;;;;;;-1.64;67.29;102020.81;5050870;28;20300;-58
2021/01/16 03:34:17;;;;;;;6.40;4.00;;;;;;;-1.63;67.39;102016.47;5052969;28;20649;-58
2021/01/16 03:36:44;;;;;;;6.03;4.00;;;;;;;-1.63;67.52;102024.31;5054555;28;20236;-57
2021/01/16 03:39:10;;;;;;;5.63;4.33;;;;;;;-1.64;67.64;102026.03;5050442;28;20210;-58
2021/01/16 03:41:36;;;;;;;7.33;4.13;;;;;;;-1.63;67.44;102026.91;5047738;28;20260;-58
2021/01/16 03:44:02;;;;;;;7.97;3.77;;;;;;;-1.63;67.79;102025.19;5050977;28;20259;-58
2021/01/16 03:46:28;;;;;;;5.70;3.63;;;;;;;-1.62;67.69;102024.31;5061246;28;20205;-59
2021/01/16 03:48:54;;;;;;;6.03;4.00;;;;;;;-1.63;67.68;102022.56;5061280;28;20228;-58
2021/01/16 03:51:20;;;;;;;5.67;3.80;;;;;;;-1.61;67.65;102025.19;5056390;28;20208;-58
2021/01/16 03:53:47;;;;;;;4.73;3.63;;;;;;;-1.61;67.85;102019.97;5060316;28;20215;-53
2021/01/16 03:56:14;;;;;;;5.60;4.23;;;;;;;-1.60;67.64;102019.94;5057437;28;20216;-59
2021/01/16 03:58:39;;;;;;;5.40;3.80;;;;;;;-1.60;68.09;102019.94;5052271;28;20212;-58
2021/01/16 04:01:05;;;;;;;5.73;3.70;;;;;;;-1.58;68.23;102017.34;5053864;28;20241;-53
2021/01/16 04:03:31;;;;;;;5.93;3.83;;;;;;;-1.57;68.10;102019.09;5057276;28;20249;-59
2021/01/16 04:05:57;;;;;;;8.57;4.10;;;;;;;-1.57;68.28;102009.53;5059412;28;20321;-53
2021/01/16 04:08:23;;;;;;;7.03;4.00;;;;;;;-1.55;68.42;102015.66;5055363;28;20245;-57
2021/01/16 04:10:50;;;;;;;8.43;4.10;;;;;;;-1.54;68.35;102011.31;5055042;28;20720;-58
2021/01/16 04:13:16;;;;;;;6.17;3.63;;;;;;;-1.54;68.52;102014.78;5053109;28;20563;-57
2021/01/16 04:15:42;;;;;;;7.30;4.50;;;;;;;-1.52;68.57;102012.19;5054622;28;20229;-57
2021/01/16 04:18:10;;;;;;;6.80;3.90;;;;;;;-1.52;68.23;102010.44;5066415;28;20205;-54
2021/01/16 04:20:36;;;;;;;4.23;3.60;;;;;;;-1.51;68.39;102012.22;5061966;28;20208;-57
2021/01/16 04:23:03;;;;;;;4.37;3.60;;;;;;;-1.51;68.85;102008.72;5056748;28;20221;-58
2021/01/16 04:25:29;;;;;;;5.47;3.80;;;;;;;-1.51;68.80;102000.88;5067274;28;20225;-59
2021/01/16 04:27:55;;;;;;;5.03;3.60;;;;;;;-1.53;68.87;102011.31;5073047;28;20228;-57
2021/01/16 04:30:22;;;;;;;5.57;3.77;;;;;;;-1.54;68.52;102006.94;5070238;28;20201;-58
2021/01/16 04:32:50;;;;;;;5.33;4.10;;;;;;;-1.54;68.49;102006.94;5062248;28;20197;-58
2021/01/16 04:35:17;;;;;;;5.67;4.27;;;;;;;-1.54;69.05;102004.34;5058130;28;20713;-58
2021/01/16 04:37:43;;;;;;;5.63;3.90;;;;;;;-1.55;68.69;101999.09;5066244;28;20210;-58
2021/01/16 04:40:10;;;;;;;4.17;3.60;;;;;;;-1.56;68.77;102000.84;5061525;28;20202;-58
2021/01/16 04:42:42;;;;;;;5.30;4.43;;;;;;;-1.57;69.04;102006.91;5054567;28;20221;-59
2021/01/16 04:45:15;;;;;;;5.77;4.07;;;;;;;-1.57;68.81;102003.44;5062133;28;20240;-58
2021/01/16 04:47:43;;;;;;;7.77;4.40;;;;;;;-1.57;68.71;102009.53;5054231;28;20197;-59
2021/01/16 04:50:11;;;;;;;6.30;4.13;;;;;;;-1.58;68.83;101994.72;5062474;28;20209;-60
2021/01/16 04:52:38;;;;;;;7.13;3.97;;;;;;;-1.58;68.79;102005.16;5054023;28;20674;-59
2021/01/16 04:55:08;;;;;;;7.80;5.00;;;;;;;-1.60;69.07;101996.44;5064291;28;20772;-58
2021/01/16 04:57:34;;;;;;;6.97;4.33;;;;;;;-1.58;68.76;101994.72;5050457;28;20692;-58
2021/01/16 05:00:00;;;;;;;9.40;4.40;;;;;;;-1.59;69.08;101986.88;5041678;28;20202;-54
2021/01/16 05:02:35;;;;;;;4.43;3.33;;;;;;;-1.58;69.11;101996.47;5062894;28;20228;-57
2021/01/16 05:05:01;;;;;;;7.63;4.67;;;;;;;-1.59;68.96;101979.03;5038773;28;20240;-56
2021/01/16 05:07:27;;;;;;;7.93;4.27;;;;;;;-1.60;68.96;101980.78;5052726;28;20209;-61
2021/01/16 05:09:56;;;;;;;5.40;4.20;;;;;;;-1.61;68.48;101979.03;5049492;28;20214;-61
2021/01/16 05:12:36;;;;;;;6.50;4.13;;;;;;;-1.59;68.50;101984.25;5044181;28;20206;-59
2021/01/16 05:15:06;;;;;;;7.23;4.50;;;;;;;-1.59;68.79;101982.53;5051952;28;20229;-59
2021/01/16 05:17:40;;;;;;;8.70;4.20;;;;;;;-1.58;68.78;101976.44;5052668;28;20219;-59
2021/01/16 05:20:08;;;;;;;5.50;4.30;;;;;;;-1.56;68.77;101973.84;5062444;28;20198;-58
2021/01/16 05:22:34;;;;;;;5.83;4.40;;;;;;;-1.56;68.49;101979.94;5060495;28;20229;-58
2021/01/16 05:25:03;;;;;;;8.90;4.80;;;;;;;-1.55;69.02;101981.69;5043244;28;20260;-58
2021/01/16 05:27:33;;;;;;;6.00;4.23;;;;;;;-1.54;68.94;101977.34;5054640;28;20208;-59
2021/01/16 05:30:01;;;;;;;5.87;4.23;;;;;;;-1.56;68.88;101974.72;5054231;28;20681;-57
2021/01/16 05:32:30;;;;;;;7.17;4.43;;;;;;;-1.55;68.89;101962.53;5052305;28;20204;-58
2021/01/16 05:35:16;;;;;;;6.03;4.57;;;;;;;-1.54;69.13;101967.75;5053579;28;20225;-53
2021/01/16 05:37:44;;;;;;;7.60;5.27;;;;;;;-1.54;68.85;101964.28;5043747;28;20212;-58
2021/01/16 05:40:11;;;;;;;6.90;4.90;;;;;;;-1.54;68.76;101967.75;5050790;28;20205;-58
2021/01/16 05:42:38;;;;;;;6.37;4.70;;;;;;;-1.54;68.95;101961.66;5052934;28;20221;-54
2021/01/16 05:45:06;;;;;;;5.70;4.30;;;;;;;-1.53;68.85;101960.81;5062653;28;20605;-56
2021/01/16 05:47:33;;;;;;;5.87;4.40;;;;;;;-1.52;68.81;101960.81;5044691;28;20201;-58
2021/01/16 05:50:01;;;;;;;6.03;4.47;;;;;;;-1.52;68.92;101958.19;5052092;28;20221;-57
2021/01/16 05:52:28;;;;;;;5.57;4.30;;;;;;;-1.53;68.92;101955.56;5038497;28;20352;-57
2021/01/16 05:54:58;;;;;;;12.70;4.93;;;;;;;-1.53;68.73;101952.97;5059611;28;20596;-58
2021/01/16 05:57:25;;;;;;;10.70;4.20;;;;;;;-1.52;68.95;101954.72;5054701;28;20207;-58
2021/01/16 05:59:57;;;;;;;9.77;4.77;;;;;;;-1.53;69.16;101945.13;5053018;28;20216;-58
2021/01/16 06:02:24;;;;;;;8.20;4.87;;;;;;;-1.52;69.17;101946.88;5058211;28;20229;-57
2021/01/16 06:04:54;;;;;;;6.10;4.50;;;;;;;-1.52;69.23;101942.53;5053808;28;20225;-58
2021/01/16 06:07:22;;;;;;;7.13;4.60;;;;;;;-1.52;69.20;101936.44;5052398;28;20210;-57
2021/01/16 06:09:50;;;;;;;7.87;5.03;;;;;;;-1.53;69.09;101935.56;5041096;28;20202;-58
2021/01/16 06:12:18;;;;;;;6.57;4.80;;;;;;;-1.52;68.70;101929.47;5046299;28;20216;-58
2021/01/16 06:14:45;;;;;;;7.50;5.13;;;;;;;-1.51;69.21;101928.59;5046867;28;20243;-56
2021/01/16 06:17:12;;;;;;;8.50;4.87;;;;;;;-1.51;68.88;101927.72;5049488;28;20217;-57
2021/01/16 06:19:42;;;;;;;7.00;5.00;;;;;;;-1.51;68.63;101928.59;5039250;28;20205;-58
2021/01/16 06:22:10;;;;;;;7.67;4.70;;;;;;;-1.51;69.25;101926.00;5040439;28;20230;-58
2021/01/16 06:24:39;;;;;;;7.63;4.80;;;;;;;-1.51;69.22;101922.50;5036424;28;20241;-59
2021/01/16 06:27:06;;;;;;;9.27;5.40;;;;;;;-1.50;69.15;101926.88;5041609;28;20209;-59
2021/01/16 06:29:34;;;;;;;8.00;4.73;;;;;;;-1.50;69.00;101926.88;5056619;28;20225;-56
2021/01/16 06:32:08;;;;;;;9.63;5.50;;;;;;;-1.50;69.31;101930.34;5061774;28;20205;-58
2021/01/16 06:34:36;;;;;;;7.73;4.83;;;;;;;-1.48;69.43;101920.78;5062248;28;20232;-58
2021/01/16 06:37:07;;;;;;;8.37;4.87;;;;;;;-1.48;69.46;101919.91;5063340;28;20205;-58
2021/01/16 06:39:39;;;;;;;7.37;5.37;;;;;;;-1.49;69.43;101924.25;5057613;28;20205;-58
2021/01/16 06:42:10;;;;;;;10.70;5.33;;;;;;;-1.48;69.43;101914.69;5050107;28;20255;-57
2021/01/16 06:44:37;;;;;;;9.13;5.20;;;;;;;-1.50;69.78;101914.69;5050774;28;20243;-58
2021/01/16 06:47:04;;;;;;;7.33;5.47;;;;;;;-1.50;69.27;101919.91;5053778;28;20208;-59
2021/01/16 06:49:31;;;;;;;8.00;6.07;;;;;;;-1.50;69.77;101916.41;5057236;28;20229;-59
2021/01/16 06:51:59;;;;;;;9.50;5.80;;;;;;;-1.52;69.91;101921.63;5047405;28;20598;-57
2021/01/16 06:54:26;;;;;;;10.87;5.90;;;;;;;-1.52;69.72;101916.41;5056949;28;20595;-54
2021/01/16 06:57:07;;;;;;;7.93;5.30;;;;;;;-1.52;70.22;101920.75;5054087;28;20217;-58
2021/01/16 06:59:34;;;;;;;7.90;5.80;;;;;;;-1.51;70.06;101912.94;5066897;28;20209;-58
2021/01/16 07:02:13;;;;;;;10.40;6.73;;;;;;;-1.52;70.12;101920.75;5044875;28;20252;-58
2021/01/16 07:04:51;;;;;;;9.67;6.63;;;;;;;-1.53;69.93;101922.50;5061143;28;20720;-58
2021/01/16 07:07:26;;;;;;;11.40;6.33;;;;;;;-1.53;70.21;101917.25;5043867;28;20671;-58
2021/01/16 07:09:55;;;;;;;9.20;6.57;;;;;;;-1.54;69.92;101917.25;5034813;28;20228;-58
2021/01/16 07:12:23;;;;;;;10.50;6.27;;;;;;;-1.52;70.36;101931.19;5038065;28;20217;-59
2021/01/16 07:14:49;;;;;;;11.17;7.00;;;;;;;-1.54;70.58;101928.56;5036258;28;20279;-58
2021/01/16 07:17:15;;;;;;;9.17;6.90;;;;;;;-1.53;70.66;101929.44;5033584;28;20210;-61
2021/01/16 07:22:17;;;;;;;11.00;6.83;;;;;;;-1.52;70.69;101921.63;6020935;22;20585;-58
2021/01/16 07:24:45;;;;;;;12.33;6.77;;;;;;;-1.51;71.03;101923.38;5015885;28;562325;-59
2021/01/16 07:27:12;;;;;;;9.80;6.90;;;;;;;-1.51;70.99;101918.16;5041119;28;20202;-59
2021/01/16 07:29:40;;;;;;;10.17;6.67;;;;;;;-1.51;70.94;101919.88;5042762;28;20201;-51
2021/01/16 07:32:16;;;;;;;9.50;6.20;;;;;;;-1.50;71.16;101908.56;5048234;28;20212;-55
2021/01/16 07:34:49;;;;;;;9.70;6.43;;;;;;;-1.49;71.20;101910.31;5049057;28;20494;-54
2021/01/16 07:37:17;;;;;;;11.07;6.03;;;;;;;-1.51;71.60;101907.69;5041914;28;20762;-55
2021/01/16 07:39:44;;;;;;;9.60;7.07;;;;;;;-1.52;71.98;101900.72;5049583;28;20205;-55
2021/01/16 07:42:15;;;;;;;11.53;7.20;;;;;;;-1.55;71.63;101903.31;5052457;28;20247;-57
2021/01/16 07:44:44;;;;;;;10.67;7.37;;;;;;;-1.58;71.52;101905.91;5049697;28;20213;-58
2021/01/16 07:47:34;;;;;;;12.20;7.73;;;;;;;-1.59;72.12;101896.31;5044498;28;20290;-54
2021/01/16 07:50:03;;;;;;;10.30;6.30;;;;;;;-1.60;71.90;101897.19;5051720;28;20797;-56
2021/01/16 07:52:29;;;;;;;10.53;6.80;;;;;;;-1.60;71.68;101897.19;5052311;28;20209;-58
2021/01/16 07:55:06;;;;;;;9.93;6.57;;;;;;;-1.58;71.84;101894.56;5046577;28;20390;-59
2021/01/16 07:57:33;;;;;;;10.73;6.33;;;;;;;-1.57;71.75;101896.31;5044279;28;20201;-56
2021/01/16 08:00:06;;;;;;;12.30;7.50;;;;;;;-1.56;71.85;101898.94;5052439;28;20201;-58
2021/01/16 08:02:35;;;;;;;10.37;7.00;;;;;;;-1.57;72.29;101902.44;5052711;28;20225;-55
2021/01/16 08:05:25;;;;;;;10.67;6.77;;;;;;;-1.53;71.77;101892.88;5043603;28;20580;-56
2021/01/16 08:08:25;;;;;;;10.73;7.07;;;;;;;-1.54;72.18;101886.78;5046043;28;20202;-56
2021/01/16 08:10:54;;;;;;;12.97;6.83;;;;;;;-1.54;71.77;101886.78;5053514;28;20205;-58
2021/01/16 08:13:23;;;;;;;10.57;6.97;;;;;;;-1.55;71.72;101886.75;5052427;28;20713;-56
2021/01/16 08:15:51;;;;;;;11.20;7.33;;;;;;;-1.54;71.78;101891.13;5053584;28;20212;-61
2021/01/16 08:18:20;;;;;;;10.60;7.10;;;;;;;-1.53;71.82;101895.50;5050967;28;20197;-55
2021/01/16 08:20:48;;;;;;;9.60;6.63;;;;;;;-1.54;71.65;101888.50;5053319;28;20205;-59
2021/01/16 08:23:23;;;;;;;8.97;6.30;;;;;;;-1.54;71.64;101884.16;5052377;28;20233;-58
2021/01/16 08:25:49;;;;;;;12.60;7.23;;;;;;;-1.53;71.63;101888.53;5052833;28;20236;-58
2021/01/16 08:28:24;;;;;;;10.20;6.93;;;;;;;-1.52;71.37;101895.50;5053000;28;20268;-58
2021/01/16 08:30:51;;;;;;;10.83;7.07;;;;;;;-1.52;71.37;101889.41;5053261;28;20216;-56
2021/01/16 08:33:17;;;;;;;11.30;7.27;;;;;;;-1.52;71.66;101878.94;5047270;28;20498;-59
2021/01/16 08:35:46;;;;;;;11.70;7.33;;;;;;;-1.53;71.32;101885.91;5048648;28;20201;-58
2021/01/16 08:38:22;;;;;;;10.57;6.70;;;;;;;-1.51;71.12;101878.97;5052830;28;20212;-58
2021/01/16 08:40:54;;;;;;;10.43;7.30;;;;;;;-1.49;70.96;101879.84;5052972;28;20661;-58
2021/01/16 08:43:29;;;;;;;13.63;7.10;;;;;;;-1.48;71.25;101873.75;5052655;28;20229;-59
2021/01/16 08:46:10;;;;;;;8.07;6.13;;;;;;;-1.46;71.29;101864.19;5052447;28;20267;-57
2021/01/16 08:48:37;;;;;;;10.40;7.30;;;;;;;-1.44;71.15;101864.22;5044411;28;20205;-58
2021/01/16 08:51:26;;;;;;;14.03;7.43;;;;;;;-1.40;71.16;101869.44;5044046;28;20991;-56
2021/01/16 08:54:05;;;;;;;11.43;6.93;;;;;;;-1.40;71.12;101869.44;5047572;28;20288;-59
2021/01/16 08:56:31;;;;;;;11.20;6.80;;;;;;;-1.38;70.91;101859.00;5042628;28;20205;-58
2021/01/16 08:58:58;;;;;;;10.53;7.27;;;;;;;-1.38;71.31;101863.34;5050376;28;20197;-54
2021/01/16 09:01:25;;;;;;;9.97;6.57;;;;;;;-1.38;70.86;101855.50;5047240;28;20209;-57
2021/01/16 09:04:13;;;;;;;12.10;7.80;;;;;;;-1.37;70.89;101857.25;5040268;28;20233;-56
2021/01/16 09:06:39;;;;;;;11.57;7.40;;;;;;;-1.35;70.99;101858.13;5046635;28;20202;-55
2021/01/16 09:09:05;;;;;;;9.63;7.17;;;;;;;-1.33;70.79;101848.56;5046682;28;20198;-55
2021/01/16 09:11:31;;;;;;;12.03;7.13;;;;;;;-1.34;70.85;101850.31;5042974;28;20264;-54
2021/01/16 09:13:58;;;;;;;11.90;7.77;;;;;;;-1.32;70.79;101850.31;5049320;28;20646;-54
2021/01/16 09:16:33;;;;;;;11.47;8.00;;;;;;;-1.31;70.66;101847.72;5047291;28;20210;-58
2021/01/16 09:19:00;;;;;;;11.80;7.00;;;;;;;-1.30;70.84;101839.00;5042803;28;20208;-56
2021/01/16 09:21:27;;;;;;;12.40;7.70;;;;;;;-1.27;70.54;101835.53;5052097;28;20197;-55
2021/01/16 09:23:55;;;;;;;12.63;8.80;;;;;;;-1.25;70.57;101850.31;5048637;28;20230;-55
2021/01/16 09:26:21;;;;;;;11.90;8.03;;;;;;;-1.22;70.55;101839.00;5049472;28;20879;-54
2021/01/16 09:28:51;;;;;;;14.47;8.23;;;;;;;-1.20;70.60;101838.16;5044004;28;20198;-52
2021/01/16 09:31:26;;;;;;;12.80;8.73;;;;;;;-1.18;70.69;101833.81;5043911;28;20217;-58
2021/01/16 09:33:55;;;;;;;13.20;9.13;;;;;;;-1.15;70.90;101835.56;5046265;28;20225;-57
2021/01/16 09:36:43;;;;;;;14.47;8.63;;;;;;;-1.11;70.76;101838.22;5045389;28;20252;-52
2021/01/16 09:39:21;;;;;;;10.27;7.37;;;;;;;-1.08;70.70;101840.84;5040581;28;20202;-54
2021/01/16 09:41:48;;;;;;;11.53;8.37;;;;;;;-1.07;70.70;101839.94;5048150;28;20259;-53
2021/01/16 09:44:15;;;;;;;15.00;8.27;;;;;;;-1.05;70.75;101839.94;5049371;28;20670;-57
2021/01/16 09:46:42;;;;;;;14.47;8.30;;;;;;;-1.04;70.55;101844.31;5044598;28;20252;-56
2021/01/16 09:49:11;;;;;;;15.67;8.90;;;;;;;-1.02;70.62;101836.47;5041303;28;20208;-58
2021/01/16 09:51:37;;;;;;;13.57;9.43;;;;;;;-1.01;70.49;101836.47;5041248;28;20814;-60
2021/01/16 09:54:11;;;;;;;44.63;18.27;;;;;;;-0.98;70.59;101840.84;5041786;28;20221;-54
2021/01/16 09:56:45;;;;;;;17.60;10.63;;;;;;;-0.98;70.70;101841.72;5040498;28;20214;-57
2021/01/16 09:59:15;;;;;;;14.47;10.50;;;;;;;-0.97;70.73;101832.13;5042270;28;20267;-56
2021/01/16 10:01:43;;;;;;;15.53;9.37;;;;;;;-0.94;70.62;101840.00;5042865;28;20615;-56
2021/01/16 10:04:22;;;;;;;18.43;11.00;;;;;;;-0.92;71.04;101839.13;5039694;28;20706;-55
2021/01/16 10:06:48;;;;;;;19.27;12.73;;;;;;;-0.90;71.10;101839.16;5042210;28;20213;-55
2021/01/16 10:09:19;;;;;;;15.07;10.07;;;;;;;-0.87;71.27;101837.38;5036815;28;20215;-55
2021/01/16 10:11:46;;;;;;;16.10;9.63;;;;;;;-0.85;71.10;101837.38;5046788;28;20569;-59
2021/01/16 10:14:13;;;;;;;15.43;10.00;;;;;;;-0.84;71.11;101826.94;5037326;28;20228;-54
2021/01/16 10:16:40;;;;;;;16.67;9.03;;;;;;;-0.81;71.50;101829.56;5041811;28;20198;-60
2021/01/16 10:19:11;;;;;;;14.37;9.03;;;;;;;-0.78;71.41;101828.69;5044013;28;20206;-55
2021/01/16 10:21:46;;;;;;;13.80;9.30;;;;;;;-0.75;71.55;101821.75;5048391;28;20657;-59
2021/01/16 10:24:18;;;;;;;14.87;10.13;;;;;;;-0.73;71.42;101809.53;5045013;28;20603;-57
2021/01/16 10:26:45;;;;;;;14.53;10.77;;;;;;;-0.70;71.51;101806.91;5046581;28;20252;-58
2021/01/16 10:29:18;;;;;;;16.60;10.43;;;;;;;-0.67;71.65;101813.88;5041102;28;20210;-58
2021/01/16 10:31:45;;;;;;;19.00;11.07;;;;;;;-0.62;71.96;101808.66;5044847;28;20236;-56
2021/01/16 10:34:12;;;;;;;16.30;10.63;;;;;;;-0.62;71.74;101788.59;5049106;28;20247;-59
2021/01/16 10:36:39;;;;;;;18.03;10.77;;;;;;;-0.59;71.68;101798.19;5050153;28;20202;-56
2021/01/16 10:39:09;;;;;;;19.03;11.70;;;;;;;-0.58;71.70;101789.47;5043381;28;20848;-58
2021/01/16 10:41:37;;;;;;;19.47;11.87;;;;;;;-0.54;71.90;101788.63;5042438;28;20247;-51
2021/01/16 10:44:05;;;;;;;18.07;11.60;;;;;;;-0.53;71.99;101787.72;5048860;28;20607;-58
2021/01/16 10:46:38;;;;;;;16.23;11.33;;;;;;;-0.53;71.79;101780.75;5042285;28;20678;-58
2021/01/16 10:49:12;;;;;;;14.73;9.73;;;;;;;-0.50;72.24;101766.78;5044586;28;20238;-56
2021/01/16 10:51:41;;;;;;;14.00;8.50;;;;;;;-0.49;72.06;101768.53;5049142;28;20216;-59
2021/01/16 10:54:08;;;;;;;14.70;9.60;;;;;;;-0.49;71.83;101763.31;5044107;28;20725;-55
2021/01/16 10:56:34;;;;;;;13.27;9.50;;;;;;;-0.50;71.91;101766.78;5048240;28;20216;-56
2021/01/16 10:59:11;;;;;;;16.03;9.20;;;;;;;-0.47;71.59;101756.31;5044767;28;20291;-56
2021/01/16 11:01:45;;;;;;;14.70;8.70;;;;;;;-0.46;71.84;101758.94;5043869;28;20210;-60
2021/01/16 11:04:18;;;;;;;12.10;8.00;;;;;;;-0.44;71.57;101748.47;5044453;28;20933;-61
2021/01/16 11:06:48;;;;;;;9.37;6.53;;;;;;;-0.44;71.01;101738.00;5044164;28;20209;-56
2021/01/16 11:09:53;;;;;;;12.87;8.77;;;;;;;-0.43;70.71;101737.16;5043386;28;20210;-58
2021/01/16 11:12:26;;;;;;;13.23;7.87;;;;;;;-0.41;70.55;101725.81;5036357;28;20220;-60
2021/01/16 11:14:52;;;;;;;14.17;9.63;;;;;;;-0.38;70.25;101723.19;5039950;28;20724;-58
2021/01/16 11:17:18;;;;;;;13.57;9.23;;;;;;;-0.33;70.49;101724.91;5044271;28;20197;-61
2021/01/16 11:19:46;;;;;;;13.47;9.37;;;;;;;-0.30;70.22;101723.16;5045521;28;20236;-59
2021/01/16 11:22:15;;;;;;;18.20;9.57;;;;;;;-0.29;70.00;101709.19;5049621;28;20635;-61
2021/01/16 11:25:08;;;;;;;15.97;10.67;;;;;;;-0.26;70.07;101714.44;5044195;28;20682;-60
2021/01/16 11:27:36;;;;;;;21.67;17.57;;;;;;;-0.23;70.07;101711.81;5047911;28;20235;-59
2021/01/16 11:30:07;;;;;;;32.20;25.43;;;;;;;-0.19;70.04;101710.06;5050394;28;20220;-60
2021/01/16 11:32:35;;;;;;;14.50;10.70;;;;;;;-0.17;70.10;101703.06;5045516;28;20260;-59
2021/01/16 11:35:09;;;;;;;20.27;13.93;;;;;;;-0.14;70.02;101703.91;5044840;28;20210;-61